Time;durP1;ratioP1;P1;durP2;ratioP2;P2;SDS_P1;SDS_P2;PMS_P1;PMS_P2;Temp;Humidity;BMP_temperature;BMP_pressure;BME280_temperature;BME280_humidity;BME280_pressure;Samples;Min_cycle;Max_cycle;Signal;HPM_P1;HPM_P2
2023/08/27 00:00:39;;;;;;;;;;;;;;;16.37;100.00;95975.56;5105519;28;19944;-77
2023/08/27 00:03:05;;;;;;;;;;;;;;;16.34;100.00;95954.94;5105218;28;20265;-77
2023/08/27 00:05:30;;;;;;;;;;;;;;;16.32;100.00;95948.34;5105344;28;20001;-72
2023/08/27 00:07:56;;;;;;;;;;;;;;;16.27;100.00;95943.03;5105311;28;20026;-73
2023/08/27 00:10:22;;;;;;;;;;;;;;;16.23;100.00;95946.22;5106119;28;19948;-72
2023/08/27 00:12:48;;;;;;;;;;;;;;;16.23;100.00;95954.16;5105275;28;19947;-72
2023/08/27 00:15:14;;;;;;;;;;;;;;;16.21;100.00;95966.88;5105195;28;19949;-74
2023/08/27 00:17:40;;;;;;;;;;;;;;;16.20;100.00;95983.78;5105185;28;20221;-73
2023/08/27 00:20:10;;;;;;;;;;;;;;;16.21;100.00;96003.91;5105061;28;19955;-72
2023/08/27 00:22:37;;;;;;;;;;;;;;;16.21;100.00;96013.66;5105176;28;19940;-76
2023/08/27 00:25:03;;;;;;;;;;;;;;;16.22;100.00;96016.06;5105845;28;20123;-70
2023/08/27 00:27:29;;;;;;;;;;;;;;;16.23;100.00;96022.13;5105026;28;19973;-70
2023/08/27 00:29:54;;;;;;;;;;;;;;;16.24;100.00;96029.03;5105783;28;19936;-70
2023/08/27 00:32:20;;;;;;;;;;;;;;;16.24;100.00;96040.41;5105453;28;19941;-69
2023/08/27 00:34:46;;;;;;;;;;;;;;;16.26;100.00;96032.19;5105446;28;19940;-70
2023/08/27 00:37:12;;;;;;;;;;;;;;;16.28;100.00;96038.03;5105677;28;19945;-69
2023/08/27 00:39:38;;;;;;;;;;;;;;;16.30;100.00;96057.09;5104737;28;19958;-75
2023/08/27 00:42:05;;;;;;;;;;;;;;;16.31;100.00;96052.56;5105378;28;20237;-69
2023/08/27 00:44:30;;;;;;;;;;;;;;;16.32;100.00;96057.63;5104731;28;19941;-70
2023/08/27 00:46:57;;;;;;;;;;;;;;;16.31;100.00;96058.66;5105199;28;19948;-70
2023/08/27 00:49:23;;;;;;;;;;;;;;;16.33;100.00;96051.25;5104700;28;19950;-69
2023/08/27 00:51:49;;;;;;;;;;;;;;;16.35;100.00;96048.34;5104610;28;19941;-69
2023/08/27 00:54:15;;;;;;;;;;;;;;;16.36;100.00;96045.44;5104614;28;19943;-70
2023/08/27 00:56:47;;;;;;;;;;;;;;;16.36;100.00;96036.72;5104424;28;20005;-69
2023/08/27 00:59:14;;;;;;;;;;;;;;;16.35;100.00;96025.31;5104979;28;19964;-75
2023/08/27 01:01:40;;;;;;;;;;;;;;;16.38;100.00;96024.81;5104537;28;19944;-75
2023/08/27 01:04:06;;;;;;;;;;;;;;;16.39;100.00;96020.28;5105011;28;19937;-75
2023/08/27 01:06:32;;;;;;;;;;;;;;;16.40;100.00;96006.81;5104458;28;19960;-75
2023/08/27 01:09:06;;;;;;;;;;;;;;;16.41;100.00;96005.72;5105125;28;20231;-75
2023/08/27 01:11:45;;;;;;;;;;;;;;;16.41;100.00;95999.66;5105231;28;19948;-75
2023/08/27 01:14:12;;;;;;;;;;;;;;;16.39;100.00;95978.75;5104914;28;19941;-75
2023/08/27 01:16:39;;;;;;;;;;;;;;;16.38;100.00;95979.03;5104125;28;20140;-75
2023/08/27 01:19:06;;;;;;;;;;;;;;;16.38;100.00;95986.97;5104209;28;19953;-71
2023/08/27 01:21:32;;;;;;;;;;;;;;;16.39;100.00;95989.31;5105014;28;19945;-71
2023/08/27 01:23:58;;;;;;;;;;;;;;;16.39;100.00;95989.31;5105090;28;20108;-71
2023/08/27 01:26:44;;;;;;;;;;;;;;;16.39;100.00;95997.25;5104274;28;19941;-71
2023/08/27 01:29:26;;;;;;;;;;;;;;;16.39;100.00;95991.19;5103940;28;19946;-71
2023/08/27 01:32:12;;;;;;;;;;;;;;;16.41;100.00;96004.94;5104007;28;20107;-70
2023/08/27 01:34:39;;;;;;;;;;;;;;;16.41;100.00;95994.38;5063392;28;20220;-76
2023/08/27 01:37:05;;;;;;;;;;;;;;;16.41;100.00;95992.50;5104163;28;19948;-75
2023/08/27 01:39:31;;;;;;;;;;;;;;;16.40;100.00;95979.56;5104611;28;20235;-70
2023/08/27 01:41:57;;;;;;;;;;;;;;;16.38;100.00;95971.88;5104106;28;19940;-70
2023/08/27 01:44:23;;;;;;;;;;;;;;;16.41;100.00;95965.25;5104085;28;19938;-70
2023/08/27 01:46:48;;;;;;;;;;;;;;;16.43;100.00;95971.84;5104607;28;19987;-70
2023/08/27 01:49:14;;;;;;;;;;;;;;;16.46;100.00;95977.69;5104031;28;19943;-70
2023/08/27 01:51:40;;;;;;;;;;;;;;;16.47;100.00;95980.06;5104028;28;19937;-70
2023/08/27 01:54:06;;;;;;;;;;;;;;;16.48;100.00;95986.16;5103965;28;20217;-70
2023/08/27 01:56:32;;;;;;;;;;;;;;;16.48;100.00;95960.47;5104174;28;20036;-75
2023/08/27 01:58:58;;;;;;;;;;;;;;;16.49;100.00;95956.78;5103880;28;19961;-76
2023/08/27 02:01:24;;;;;;;;;;;;;;;16.48;100.00;95960.47;5104498;28;19944;-76
2023/08/27 02:03:49;;;;;;;;;;;;;;;16.49;100.00;95945.41;5104461;28;19932;-76
2023/08/27 02:06:15;;;;;;;;;;;;;;;16.48;100.00;95947.22;5104653;28;19945;-75
2023/08/27 02:08:41;;;;;;;;;;;;;;;16.48;100.00;95949.88;5103705;28;19952;-76
2023/08/27 02:11:07;;;;;;;;;;;;;;;16.49;100.00;95966.56;5104371;28;19996;-76
2023/08/27 02:13:33;;;;;;;;;;;;;;;16.50;100.00;95971.56;5103896;28;20025;-70
2023/08/27 02:16:00;;;;;;;;;;;;;;;16.51;100.00;95969.75;5103729;28;19939;-75
2023/08/27 02:18:26;;;;;;;;;;;;;;;16.52;100.00;95984.56;5103780;28;19940;-75
2023/08/27 02:20:52;;;;;;;;;;;;;;;16.52;100.00;95995.16;5103693;28;19964;-75
2023/08/27 02:23:18;;;;;;;;;;;;;;;16.52;100.00;96001.22;5104254;28;20113;-75
2023/08/27 02:25:44;;;;;;;;;;;;;;;16.51;100.00;95989.06;5104510;28;19936;-75
2023/08/27 02:28:10;;;;;;;;;;;;;;;16.47;100.00;95992.50;5106703;28;19978;-75
2023/08/27 02:30:36;;;;;;;;;;;;;;;16.42;100.00;95993.28;5107287;28;19946;-72
2023/08/27 02:33:02;;;;;;;;;;;;;;;16.39;100.00;95988.53;5107808;28;19940;-76
2023/08/27 02:35:27;;;;;;;;;;;;;;;16.39;100.00;95988.53;5107185;28;19936;-76
2023/08/27 02:37:53;;;;;;;;;;;;;;;16.40;100.00;95984.84;5105956;28;19948;-76
2023/08/27 02:40:19;;;;;;;;;;;;;;;16.42;100.00;95990.63;5107829;28;19962;-76
2023/08/27 02:42:46;;;;;;;;;;;;;;;16.43;100.00;95993.03;5107869;28;19970;-76
2023/08/27 02:45:12;;;;;;;;;;;;;;;16.45;100.00;95990.13;5107056;28;19935;-76
2023/08/27 02:47:38;;;;;;;;;;;;;;;16.44;100.00;95984.03;5106963;28;19938;-69
2023/08/27 02:50:04;;;;;;;;;;;;;;;16.41;100.00;95967.91;5106986;28;19938;-75
2023/08/27 02:52:30;;;;;;;;;;;;;;;16.40;100.00;95969.75;5106938;28;19952;-74
2023/08/27 02:54:56;;;;;;;;;;;;;;;16.41;100.00;95994.38;5106915;28;20132;-75
2023/08/27 02:57:22;;;;;;;;;;;;;;;16.42;100.00;95994.09;5106666;28;20030;-75
2023/08/27 02:59:48;;;;;;;;;;;;;;;16.37;100.00;95964.97;5107302;28;19962;-72
2023/08/27 03:02:13;;;;;;;;;;;;;;;16.29;100.00;95968.16;5106739;28;19974;-72
2023/08/27 03:04:39;;;;;;;;;;;;;;;16.23;100.00;95972.69;5106657;28;19941;-73
2023/08/27 03:07:05;;;;;;;;;;;;;;;16.21;100.00;95984.56;5106580;28;20001;-68
2023/08/27 03:09:31;;;;;;;;;;;;;;;16.21;100.00;95982.72;5107445;28;19948;-68
2023/08/27 03:11:57;;;;;;;;;;;;;;;16.23;100.00;95985.91;5106544;28;19943;-68
2023/08/27 03:14:22;;;;;;;;;;;;;;;16.27;100.00;95988.00;5106507;28;20134;-68
2023/08/27 03:16:48;;;;;;;;;;;;;;;16.18;100.00;95970.03;5106446;28;19948;-68
2023/08/27 03:19:14;;;;;;;;;;;;;;;16.13;100.00;95963.94;5106307;28;20032;-68
2023/08/27 03:21:40;;;;;;;;;;;;;;;16.08;100.00;95959.44;5106363;28;20008;-69
2023/08/27 03:24:06;;;;;;;;;;;;;;;16.06;100.00;95955.47;5106233;28;20278;-68
2023/08/27 03:26:32;;;;;;;;;;;;;;;16.03;100.00;95956.81;5106326;28;20124;-72
2023/08/27 03:28:58;;;;;;;;;;;;;;;16.02;100.00;95961.31;5106195;28;19934;-73
2023/08/27 03:31:23;;;;;;;;;;;;;;;16.01;100.00;95951.75;5106690;28;19943;-73
2023/08/27 03:33:49;;;;;;;;;;;;;;;15.99;100.00;95943.31;5106149;28;20003;-72
2023/08/27 03:36:16;;;;;;;;;;;;;;;15.99;100.00;95935.38;5106030;28;19951;-73
2023/08/27 03:38:41;;;;;;;;;;;;;;;15.99;100.00;95931.94;5106737;28;19961;-72
2023/08/27 03:41:07;;;;;;;;;;;;;;;15.98;100.00;95930.34;5106446;28;20234;-72
2023/08/27 03:43:33;;;;;;;;;;;;;;;15.99;100.00;95932.72;5105938;28;19949;-72
2023/08/27 03:45:59;;;;;;;;;;;;;;;16.00;100.00;95931.69;5106676;28;20266;-72
2023/08/27 03:48:25;;;;;;;;;;;;;;;16.03;100.00;95922.41;5105798;28;19943;-73
2023/08/27 03:50:51;;;;;;;;;;;;;;;16.06;100.00;95918.44;5105786;28;20016;-72
2023/08/27 03:53:17;;;;;;;;;;;;;;;16.06;100.00;95918.44;5106273;28;19959;-73
2023/08/27 03:55:43;;;;;;;;;;;;;;;16.07;100.00;95920.03;5105498;28;20194;-72
2023/08/27 03:58:10;;;;;;;;;;;;;;;16.08;100.00;95927.69;5106464;28;20136;-72
2023/08/27 04:00:37;;;;;;;;;;;;;;;16.09;100.00;95931.94;5106098;28;19968;-72
2023/08/27 04:03:03;;;;;;;;;;;;;;;16.07;100.00;95939.34;5105514;28;19941;-69
2023/08/27 04:05:29;;;;;;;;;;;;;;;16.04;100.00;95934.56;5105480;28;19943;-69
2023/08/27 04:07:55;;;;;;;;;;;;;;;16.03;100.00;95931.13;5105469;28;19958;-68
2023/08/27 04:10:21;;;;;;;;;;;;;;;16.02;100.00;95940.16;5105495;28;19944;-69
2023/08/27 04:12:47;;;;;;;;;;;;;;;16.03;100.00;95933.78;5105374;28;19940;-68
2023/08/27 04:15:13;;;;;;;;;;;;;;;16.05;100.00;95919.53;5105303;28;20238;-68
2023/08/27 04:17:38;;;;;;;;;;;;;;;16.06;100.00;95884.84;5105293;28;20003;-69
2023/08/27 04:20:05;;;;;;;;;;;;;;;16.07;100.00;95881.16;5105745;28;19958;-73
2023/08/27 04:22:31;;;;;;;;;;;;;;;16.08;100.00;95900.47;5105284;28;19994;-72
2023/08/27 04:24:57;;;;;;;;;;;;;;;16.05;100.00;95882.50;5105154;28;19950;-78
2023/08/27 04:27:23;;;;;;;;;;;;;;;16.02;100.00;95886.44;5104033;28;19939;-78
2023/08/27 04:29:49;;;;;;;;;;;;;;;16.02;100.00;95894.38;5105913;28;19937;-78
2023/08/27 04:32:14;;;;;;;;;;;;;;;16.03;100.00;95907.34;5105795;28;19946;-78
2023/08/27 04:34:40;;;;;;;;;;;;;;;16.03;100.00;95894.13;5105845;28;19987;-79
2023/08/27 04:37:06;;;;;;;;;;;;;;;16.03;100.00;95891.47;5104973;28;19938;-79
2023/08/27 04:39:32;;;;;;;;;;;;;;;16.02;100.00;95883.78;5104889;28;19965;-69
2023/08/27 04:41:58;;;;;;;;;;;;;;;16.02;100.00;95889.91;5103811;28;19938;-73
2023/08/27 04:44:26;;;;;;;;;;;;;;;16.01;100.00;95898.09;5105686;28;19956;-73
2023/08/27 04:46:52;;;;;;;;;;;;;;;16.01;100.00;95900.72;5104823;28;19948;-73
2023/08/27 04:49:19;;;;;;;;;;;;;;;16.02;100.00;95897.00;5104616;28;19940;-73
2023/08/27 04:51:44;;;;;;;;;;;;;;;16.01;100.00;95892.81;5104986;28;19950;-73
2023/08/27 04:54:10;;;;;;;;;;;;;;;15.97;100.00;95905.75;5104686;28;19938;-73
2023/08/27 04:56:36;;;;;;;;;;;;;;;15.96;100.00;95911.31;5104851;28;19964;-74
2023/08/27 04:59:02;;;;;;;;;;;;;;;15.95;100.00;95913.16;5104555;28;20006;-73
2023/08/27 05:01:28;;;;;;;;;;;;;;;15.95;100.00;95921.09;5104606;28;19942;-72
2023/08/27 05:03:54;;;;;;;;;;;;;;;15.93;100.00;95923.19;5105152;28;19964;-72
2023/08/27 05:06:19;;;;;;;;;;;;;;;15.94;100.00;95918.72;5104471;28;20118;-72
2023/08/27 05:08:45;;;;;;;;;;;;;;;15.93;100.00;95925.06;5104449;28;19952;-72
2023/08/27 05:11:11;;;;;;;;;;;;;;;15.89;100.00;95934.56;5104672;28;19948;-72
2023/08/27 05:13:37;;;;;;;;;;;;;;;15.86;100.00;95937.75;5104478;28;19946;-72
2023/08/27 05:16:03;;;;;;;;;;;;;;;15.83;100.00;95928.47;5104735;28;19943;-72
2023/08/27 05:18:29;;;;;;;;;;;;;;;15.87;100.00;95921.63;5104707;28;19945;-72
2023/08/27 05:20:55;;;;;;;;;;;;;;;15.91;100.00;95935.91;5104317;28;19958;-73
2023/08/27 05:23:22;;;;;;;;;;;;;;;15.94;100.00;95929.31;5105203;28;19945;-72
2023/08/27 05:25:48;;;;;;;;;;;;;;;15.94;100.00;95935.38;5104329;28;19938;-72
2023/08/27 05:28:14;;;;;;;;;;;;;;;15.95;100.00;95942.25;5104317;28;19946;-72
2023/08/27 05:30:44;;;;;;;;;;;;;;;15.98;100.00;95935.63;5104338;28;19942;-73
2023/08/27 05:33:10;;;;;;;;;;;;;;;15.96;100.00;95935.91;5105088;28;19945;-68
2023/08/27 05:35:35;;;;;;;;;;;;;;;15.97;100.00;95944.63;5104266;28;19942;-69
2023/08/27 05:38:01;;;;;;;;;;;;;;;15.96;100.00;95938.56;5104239;28;19945;-77
2023/08/27 05:40:27;;;;;;;;;;;;;;;15.95;100.00;95942.25;5104934;28;20170;-77
2023/08/27 05:42:53;;;;;;;;;;;;;;;15.96;100.00;95940.41;5103117;28;20132;-76
2023/08/27 05:45:19;;;;;;;;;;;;;;;15.99;100.00;95926.66;5104123;28;19937;-77
2023/08/27 05:47:45;;;;;;;;;;;;;;;16.02;100.00;95926.94;5104102;28;19936;-77
2023/08/27 05:50:10;;;;;;;;;;;;;;;16.05;100.00;95928.25;5104087;28;19945;-77
2023/08/27 05:52:36;;;;;;;;;;;;;;;16.09;100.00;95931.94;5104141;28;19937;-72
2023/08/27 05:55:02;;;;;;;;;;;;;;;16.09;100.00;95934.59;5104628;28;20004;-73
2023/08/27 05:57:28;;;;;;;;;;;;;;;16.08;100.00;95937.50;5102951;28;19965;-72
2023/08/27 05:59:54;;;;;;;;;;;;;;;16.08;100.00;95942.78;5103981;28;19962;-72
2023/08/27 06:02:20;;;;;;;;;;;;;;;16.07;100.00;95939.34;5105008;28;19945;-73
2023/08/27 06:04:46;;;;;;;;;;;;;;;16.10;100.00;95922.94;5107892;28;19945;-73
2023/08/27 06:07:11;;;;;;;;;;;;;;;16.12;100.00;95922.69;5107750;28;19965;-72
2023/08/27 06:09:37;;;;;;;;;;;;;;;16.15;100.00;95919.50;5108376;28;19942;-73
2023/08/27 06:12:04;;;;;;;;;;;;;;;16.19;100.00;95900.19;5108305;28;19945;-73
2023/08/27 06:14:30;;;;;;;;;;;;;;;16.22;100.00;95899.66;5107711;28;19936;-71
2023/08/27 06:16:56;;;;;;;;;;;;;;;16.28;100.00;95897.00;5107644;28;19943;-71
2023/08/27 06:19:22;;;;;;;;;;;;;;;16.27;100.00;95903.34;5107545;28;19943;-72
2023/08/27 06:21:48;;;;;;;;;;;;;;;16.23;100.00;95905.72;5107557;28;19945;-72
2023/08/27 06:24:14;;;;;;;;;;;;;;;16.20;100.00;95904.41;5107463;28;19936;-72
2023/08/27 06:26:39;;;;;;;;;;;;;;;16.21;100.00;95921.88;5107499;28;20006;-72
2023/08/27 06:29:06;;;;;;;;;;;;;;;16.22;100.00;95923.47;5107957;28;20007;-72
2023/08/27 06:31:32;;;;;;;;;;;;;;;16.20;100.00;95919.50;5107417;28;19943;-79
2023/08/27 06:33:58;;;;;;;;;;;;;;;16.16;100.00;95921.09;5106573;28;19935;-72
2023/08/27 06:36:23;;;;;;;;;;;;;;;16.15;100.00;95943.31;5107281;28;19958;-72
2023/08/27 06:38:49;;;;;;;;;;;;;;;16.12;100.00;95949.13;5108085;28;20129;-72
2023/08/27 06:41:15;;;;;;;;;;;;;;;16.07;100.00;95955.22;5107125;28;20291;-73
2023/08/27 06:43:41;;;;;;;;;;;;;;;16.06;100.00;95963.41;5106075;28;20138;-72
2023/08/27 06:46:08;;;;;;;;;;;;;;;16.05;100.00;95970.56;5107085;28;19945;-73
2023/08/27 06:48:34;;;;;;;;;;;;;;;16.03;100.00;95970.81;5107874;28;19950;-76
2023/08/27 06:51:00;;;;;;;;;;;;;;;16.03;100.00;95972.66;5106980;28;19938;-72
2023/08/27 06:53:25;;;;;;;;;;;;;;;16.06;100.00;95960.75;5107233;28;19940;-71
2023/08/27 06:55:51;;;;;;;;;;;;;;;16.09;100.00;95947.81;5106709;28;19942;-71
2023/08/27 06:58:17;;;;;;;;;;;;;;;16.13;100.00;95937.50;5106867;28;19943;-71
2023/08/27 07:00:44;;;;;;;;;;;;;;;16.14;100.00;95925.84;5106730;28;20141;-72
2023/08/27 07:03:10;;;;;;;;;;;;;;;16.12;100.00;95928.75;5106737;28;20244;-72
2023/08/27 07:05:36;;;;;;;;;;;;;;;16.13;100.00;95925.06;5106751;28;19944;-72
2023/08/27 07:08:02;;;;;;;;;;;;;;;16.18;100.00;95922.41;5105823;28;19959;-72
2023/08/27 07:10:28;;;;;;;;;;;;;;;16.23;100.00;95924.25;5106619;28;19964;-76
2023/08/27 07:12:54;;;;;;;;;;;;;;;16.27;100.00;95906.00;5106946;28;19936;-76
2023/08/27 07:15:20;;;;;;;;;;;;;;;16.32;100.00;95903.34;5106506;28;20005;-76
2023/08/27 07:17:45;;;;;;;;;;;;;;;16.35;100.00;95897.50;5106444;28;19977;-76
2023/08/27 07:20:12;;;;;;;;;;;;;;;16.38;100.00;95908.38;5106874;28;19954;-76
2023/08/27 07:22:37;;;;;;;;;;;;;;;16.43;100.00;95903.06;5106447;28;19949;-76
2023/08/27 07:25:05;;;;;;;;;;;;;;;16.48;100.00;95904.09;5106307;28;19939;-80
2023/08/27 07:27:32;;;;;;;;;;;;;;;16.52;100.00;95902.50;5105114;28;19948;-72
2023/08/27 07:29:58;;;;;;;;;;;;;;;16.56;100.00;95900.91;5106202;28;20119;-72
2023/08/27 07:32:24;;;;;;;;;;;;;;;16.62;100.00;95918.38;5106927;28;19946;-73
2023/08/27 07:34:50;;;;;;;;;;;;;;;16.64;100.00;95921.53;5106436;28;19931;-72
2023/08/27 07:37:16;;;;;;;;;;;;;;;16.64;100.00;95926.81;5106012;28;19949;-72
2023/08/27 07:39:41;;;;;;;;;;;;;;;16.64;100.00;95938.19;5106164;28;19940;-72
2023/08/27 07:42:07;;;;;;;;;;;;;;;16.66;100.00;95943.25;5105956;28;19938;-72
2023/08/27 07:44:33;;;;;;;;;;;;;;;16.64;100.00;95961.25;5106763;28;20014;-73
2023/08/27 07:46:59;;;;;;;;;;;;;;;16.62;100.00;95968.66;5105862;28;19943;-73
2023/08/27 07:49:25;;;;;;;;;;;;;;;16.65;100.00;95965.47;5105803;28;19976;-73
2023/08/27 07:51:53;;;;;;;;;;;;;;;16.69;100.00;95955.13;5105705;28;19936;-73
2023/08/27 07:54:19;;;;;;;;;;;;;;;16.73;100.00;95959.63;5105709;28;19940;-73
2023/08/27 07:56:45;;;;;;;;;;;;;;;16.79;100.00;95981.59;5105494;28;20274;-73
2023/08/27 07:59:10;;;;;;;;;;;;;;;16.80;100.00;95991.16;5105605;28;19939;-73
2023/08/27 08:01:36;;;;;;;;;;;;;;;16.81;100.00;96005.97;5106373;28;20232;-70
2023/08/27 08:04:03;;;;;;;;;;;;;;;16.78;100.00;96007.28;5105499;28;19937;-73
2023/08/27 08:06:28;;;;;;;;;;;;;;;16.74;100.00;96006.25;5105437;28;19943;-72
2023/08/27 08:08:54;;;;;;;;;;;;;;;16.70;100.00;96001.75;5105372;28;20251;-72
2023/08/27 08:11:20;;;;;;;;;;;;;;;16.69;100.00;95990.34;5106170;28;19939;-72
2023/08/27 08:13:46;;;;;;;;;;;;;;;16.72;100.00;95989.81;5105326;28;19975;-72
2023/08/27 08:16:12;;;;;;;;;;;;;;;16.80;100.00;95993.78;5105278;28;19940;-72
2023/08/27 08:18:38;;;;;;;;;;;;;;;16.90;100.00;96012.31;5105513;28;19936;-72
2023/08/27 08:21:04;;;;;;;;;;;;;;;16.94;100.00;96015.22;5104909;28;19965;-72
2023/08/27 08:23:30;;;;;;;;;;;;;;;16.95;100.00;96012.31;5105358;28;19947;-79
2023/08/27 08:25:57;;;;;;;;;;;;;;;16.97;100.00;96014.69;5105148;28;19946;-79
2023/08/27 08:28:23;;;;;;;;;;;;;;;17.03;100.00;96003.81;5105606;28;19943;-79
2023/08/27 08:30:49;;;;;;;;;;;;;;;17.09;100.00;95998.50;5105917;28;19935;-78
2023/08/27 08:33:15;;;;;;;;;;;;;;;17.13;100.00;95996.88;5104928;28;19940;-79
2023/08/27 08:35:42;;;;;;;;;;;;;;;17.13;100.00;96002.19;5104978;28;19942;-79
2023/08/27 08:38:08;;;;;;;;;;;;;;;17.14;100.00;96001.94;5104930;28;19957;-72
2023/08/27 08:40:38;;;;;;;;;;;;;;;17.14;100.00;95993.19;5105364;28;20107;-72
2023/08/27 08:43:05;;;;;;;;;;;;;;;17.15;100.00;96002.72;5105687;28;19946;-73
2023/08/27 08:45:44;;;;;;;;;;;;;;;17.13;100.00;96004.84;5104766;28;20132;-72
2023/08/27 08:48:11;;;;;;;;;;;;;;;17.12;100.00;95993.44;5104755;28;19938;-73
2023/08/27 08:50:40;;;;;;;;;;;;;;;17.16;100.00;95999.00;5104403;28;19950;-72
2023/08/27 08:53:12;;;;;;;;;;;;;;;17.17;100.00;95992.63;5104942;28;19936;-72
2023/08/27 08:55:40;;;;;;;;;;;;;;;17.19;100.00;95995.81;5105391;28;19940;-74
2023/08/27 08:58:08;;;;;;;;;;;;;;;17.18;100.00;96002.97;5105211;28;19949;-72
2023/08/27 09:00:34;;;;;;;;;;;;;;;17.17;100.00;95996.06;5103431;28;19964;-73
2023/08/27 09:03:01;;;;;;;;;;;;;;;17.21;100.00;95998.97;5104547;28;20212;-73
2023/08/27 09:05:28;;;;;;;;;;;;;;;17.27;100.00;95991.81;5104551;28;19942;-73
2023/08/27 09:07:54;;;;;;;;;;;;;;;17.29;100.00;95979.09;5104388;28;19956;-73
2023/08/27 09:10:20;;;;;;;;;;;;;;;17.32;100.00;95976.66;5104715;28;20217;-73
2023/08/27 09:12:47;;;;;;;;;;;;;;;17.34;100.00;95979.84;5104456;28;20010;-74
2023/08/27 09:15:12;;;;;;;;;;;;;;;17.39;100.00;95977.19;5104440;28;20230;-74
2023/08/27 09:17:39;;;;;;;;;;;;;;;17.45;100.00;95975.31;5104394;28;19946;-70
2023/08/27 09:20:05;;;;;;;;;;;;;;;17.45;100.00;95959.41;5104241;28;19950;-71
2023/08/27 09:22:34;;;;;;;;;;;;;;;17.51;100.00;95960.94;5104372;28;19942;-70
2023/08/27 09:25:00;;;;;;;;;;;;;;;17.60;100.00;95961.16;5104859;28;19944;-70
2023/08/27 09:27:26;;;;;;;;;;;;;;;17.64;100.00;95951.59;5104254;28;19949;-70
2023/08/27 09:29:53;;;;;;;;;;;;;;;17.67;100.00;95959.00;5105052;28;19939;-70
2023/08/27 09:32:19;;;;;;;;;;;;;;;17.71;100.00;95965.34;5104752;28;20238;-70
2023/08/27 09:34:45;;;;;;;;;;;;;;;17.77;100.00;95961.59;5104257;28;20201;-72
2023/08/27 09:37:12;;;;;;;;;;;;;;;17.82;100.00;95969.53;5106819;28;19954;-78
2023/08/27 09:39:45;;;;;;;;;;;;;;;17.92;100.00;95968.69;5109097;28;19939;-79
2023/08/27 09:42:14;;;;;;;;;;;;;;;18.04;100.00;95971.00;5108176;28;20127;-78
2023/08/27 09:44:47;;;;;;;;;;;;;;;18.11;100.00;95963.50;5108205;28;19958;-77
2023/08/27 09:47:13;;;;;;;;;;;;;;;18.15;100.00;95959.22;5108722;28;19938;-78
2023/08/27 09:49:40;;;;;;;;;;;;;;;18.15;100.00;95953.91;5108987;28;19944;-78
2023/08/27 09:52:05;;;;;;;;;;;;;;;18.15;100.00;95953.13;5108084;28;19944;-73
2023/08/27 09:54:31;;;;;;;;;;;;;;;18.13;100.00;95948.09;5108282;28;20163;-75
2023/08/27 09:56:59;;;;;;;;;;;;;;;18.12;100.00;95956.31;5108024;28;19976;-75
2023/08/27 09:59:26;;;;;;;;;;;;;;;18.07;100.00;95961.69;5108191;28;19946;-75
2023/08/27 10:01:52;;;;;;;;;;;;;;;18.04;100.00;95963.03;5107761;28;19961;-75
2023/08/27 10:04:18;;;;;;;;;;;;;;;18.00;100.00;95962.78;5107869;28;20042;-75
2023/08/27 10:06:44;;;;;;;;;;;;;;;17.96;100.00;95964.41;5108318;28;19937;-75
2023/08/27 10:09:10;;;;;;;;;;;;;;;17.94;100.00;95965.75;5107652;28;20001;-72
2023/08/27 10:11:36;;;;;;;;;;;;;;;17.93;100.00;95964.16;5108053;28;19943;-75
2023/08/27 10:14:03;;;;;;;;;;;;;;;17.94;100.00;95966.53;5107687;28;19939;-71
2023/08/27 10:16:30;;;;;;;;;;;;;;;17.97;100.00;95958.00;5107566;28;19939;-71
2023/08/27 10:18:56;;;;;;;;;;;;;;;18.01;100.00;95943.13;5108135;28;19943;-71
2023/08/27 10:21:22;;;;;;;;;;;;;;;18.09;100.00;95941.75;5107386;28;19962;-71
2023/08/27 10:23:49;;;;;;;;;;;;;;;18.15;100.00;95948.59;5107477;28;19947;-70
2023/08/27 10:26:15;;;;;;;;;;;;;;;18.21;100.00;95955.44;5107412;28;20259;-71
2023/08/27 10:28:41;;;;;;;;;;;;;;;18.27;100.00;95948.25;5107370;28;19939;-76
2023/08/27 10:31:07;;;;;;;;;;;;;;;18.32;100.00;95947.41;5108206;28;19938;-73
2023/08/27 10:33:33;;;;;;;;;;;;;;;18.36;100.00;95951.88;5107343;28;20245;-72
2023/08/27 10:36:11;;;;;;;;;;;;;;;18.40;100.00;95941.50;5107233;28;19962;-72
2023/08/27 10:38:38;;;;;;;;;;;;;;;18.45;100.00;95941.44;5107174;28;20128;-72
2023/08/27 10:41:05;;;;;;;;;;;;;;;18.53;100.00;95948.00;5107573;28;19956;-73
2023/08/27 10:43:35;;;;;;;;;;;;;;;18.63;100.00;95950.56;5107077;28;19938;-72
2023/08/27 10:46:17;;;;;;;;;;;;;;;18.68;100.00;95939.88;5107064;28;19937;-74
2023/08/27 10:48:53;;;;;;;;;;;;;;;18.68;100.00;95947.84;5106954;28;19947;-71
2023/08/27 10:51:21;;;;;;;;;;;;;;;18.62;100.00;95925.84;5107530;28;19931;-72
2023/08/27 10:53:50;;;;;;;;;;;;;;;18.61;100.00;95958.03;5105818;28;20225;-72
2023/08/27 10:56:31;;;;;;;;;;;;;;;18.62;100.00;95946.31;5106616;28;19960;-72
2023/08/27 10:58:57;;;;;;;;;;;;;;;18.62;100.00;95933.81;5107106;28;19944;-72
2023/08/27 11:01:23;;;;;;;;;;;;;;;18.61;100.00;95945.53;5106655;28;19951;-72
2023/08/27 11:04:04;;;;;;;;;;;;;;;18.57;100.00;95951.69;5107354;28;19933;-72
2023/08/27 11:06:46;;;;;;;;;;;;;;;18.56;100.00;95952.75;5107228;28;19941;-76
2023/08/27 11:09:23;;;;;;;;;;;;;;;18.59;100.00;95962.81;5107049;28;20138;-74
2023/08/27 11:11:51;;;;;;;;;;;;;;;18.62;100.00;95954.28;5106497;28;19960;-74
2023/08/27 11:14:18;;;;;;;;;;;;;;;18.66;100.00;95945.47;5107278;28;19935;-74
2023/08/27 11:16:45;;;;;;;;;;;;;;;18.71;100.00;95951.78;5106984;28;19942;-74
2023/08/27 11:19:11;;;;;;;;;;;;;;;18.74;100.00;95930.00;5106896;28;19930;-75
2023/08/27 11:21:37;;;;;;;;;;;;;;;18.78;100.00;95931.00;5106300;28;19958;-74
2023/08/27 11:24:11;;;;;;;;;;;;;;;18.87;100.00;95945.28;5106333;28;19947;-72
2023/08/27 11:26:38;;;;;;;;;;;;;;;18.94;100.00;95934.31;5106230;28;20218;-70
2023/08/27 11:29:06;;;;;;;;;;;;;;;19.00;100.00;95926.00;5106743;28;19935;-70
2023/08/27 11:31:32;;;;;;;;;;;;;;;19.10;100.00;95930.41;5106173;28;19941;-70
2023/08/27 11:33:59;;;;;;;;;;;;;;;19.18;100.00;95937.75;5106038;28;19935;-69
2023/08/27 11:36:25;;;;;;;;;;;;;;;19.26;100.00;95921.16;5104977;28;20225;-70
2023/08/27 11:38:54;;;;;;;;;;;;;;;19.26;100.00;95912.41;5106027;28;19982;-70
2023/08/27 11:41:20;;;;;;;;;;;;;;;19.18;100.00;95921.78;5105837;28;19980;-77
2023/08/27 11:43:50;;;;;;;;;;;;;;;19.12;100.00;95922.94;5106777;28;20195;-72
2023/08/27 11:46:19;;;;;;;;;;;;;;;19.06;100.00;95942.66;5106124;28;20099;-74
2023/08/27 11:48:48;;;;;;;;;;;;;;;19.07;100.00;95949.59;5105858;28;19939;-73
2023/08/27 11:51:14;;;;;;;;;;;;;;;19.13;100.00;95937.81;5105660;28;19936;-74
2023/08/27 11:53:46;;;;;;;;;;;;;;;19.21;100.00;95947.00;5105727;28;19943;-74
2023/08/27 11:56:13;;;;;;;;;;;;;;;19.33;100.00;95914.69;5105852;28;19978;-75
2023/08/27 11:58:42;;;;;;;;;;;;;;;19.40;100.00;95918.59;5104759;28;19948;-74
2023/08/27 12:01:11;;;;;;;;;;;;;;;19.46;100.00;95919.28;5105540;28;20291;-70
2023/08/27 12:03:37;;;;;;;;;;;;;;;19.48;100.00;95904.63;5105575;28;19944;-71
2023/08/27 12:06:04;;;;;;;;;;;;;;;19.46;100.00;95898.84;5106268;28;19942;-71
2023/08/27 12:08:36;;;;;;;;;;;;;;;19.41;100.00;95908.75;5105415;28;19961;-71
2023/08/27 12:11:02;;;;;;;;;;;;;;;19.38;100.00;95909.28;5105456;28;20099;-71
2023/08/27 12:13:28;;;;;;;;;;;;;;;19.38;100.00;95899.47;5105344;28;19944;-71
2023/08/27 12:15:54;;;;;;;;;;;;;;;19.39;100.00;95892.28;5105885;28;19936;-71
2023/08/27 12:18:20;;;;;;;;;;;;;;;19.37;100.00;95905.84;5105231;28;19939;-75
2023/08/27 12:20:49;;;;;;;;;;;;;;;19.32;100.00;95890.00;5104637;28;20221;-69
2023/08/27 12:23:15;;;;;;;;;;;;;;;19.31;100.00;95906.22;5105426;28;19944;-73
2023/08/27 12:25:45;;;;;;;;;;;;;;;19.28;100.00;95886.31;5105965;28;19940;-73
2023/08/27 12:28:11;;;;;;;;;;;;;;;19.28;100.00;95923.53;5105109;28;19935;-73
2023/08/27 12:30:37;;;;;;;;;;;;;;;19.31;100.00;95925.59;5105061;28;19956;-73
2023/08/27 12:33:04;;;;;;;;;;;;;;;19.33;100.00;95918.13;5105049;28;20131;-73